createdAt,value
2022-08-11T00:01:16.212Z,21.27
2022-08-11T00:03:49.557Z,21.26
2022-08-11T00:06:26.813Z,21.31
2022-08-11T00:08:56.222Z,21.32
2022-08-11T00:11:34.179Z,21.28
2022-08-11T00:14:04.744Z,21.14
2022-08-11T00:16:33.775Z,21.04
2022-08-11T00:19:03.690Z,20.99
2022-08-11T00:22:03.905Z,20.97
2022-08-11T00:24:50.961Z,20.94
2022-08-11T00:27:33.290Z,20.99
2022-08-11T00:30:01.513Z,20.99
2022-08-11T00:32:30.980Z,20.91
2022-08-11T00:35:51.948Z,20.81
2022-08-11T00:37:54.154Z,20.77
2022-08-11T00:40:28.248Z,20.78
2022-08-11T00:43:10.884Z,20.84
2022-08-11T00:46:10.668Z,20.87
2022-08-11T00:48:48.567Z,20.81
2022-08-11T00:51:57.707Z,20.66
2022-08-11T00:55:01.575Z,20.57
2022-08-11T00:57:59.863Z,20.44
2022-08-11T01:00:34.363Z,20.43
2022-08-11T01:03:18.028Z,20.44
2022-08-11T01:06:05.413Z,20.46
2022-08-11T01:09:08.588Z,20.49
2022-08-11T01:12:06.344Z,20.44
2022-08-11T01:15:16.087Z,20.28
2022-08-11T01:18:17.003Z,20.18
2022-08-11T01:21:40.013Z,20.05
2022-08-11T01:25:04.327Z,19.96
2022-08-11T01:28:10.245Z,19.89
2022-08-11T01:31:14.435Z,19.80
2022-08-11T01:34:34.723Z,19.69
2022-08-11T01:37:39.824Z,19.64
2022-08-11T01:40:30.702Z,19.56
2022-08-11T01:43:32.864Z,19.48
2022-08-11T01:46:06.154Z,19.44
2022-08-11T01:48:42.435Z,19.41
2022-08-11T01:51:23.799Z,19.38
2022-08-11T01:53:58.196Z,19.38
2022-08-11T01:56:38.267Z,19.33
2022-08-11T01:59:18.882Z,19.34
2022-08-11T02:01:59.010Z,19.35
2022-08-11T02:04:36.962Z,19.39
2022-08-11T02:07:15.340Z,19.42
2022-08-11T02:10:01.697Z,19.39
2022-08-11T02:12:52.590Z,19.36
2022-08-11T02:15:28.750Z,19.34
2022-08-11T02:18:06.090Z,19.32
2022-08-11T02:21:00.750Z,19.29
2022-08-11T02:24:04.126Z,19.24
2022-08-11T02:26:36.596Z,19.13
2022-08-11T02:29:14.400Z,19.11
2022-08-11T02:32:25.525Z,19.08
2022-08-11T02:35:10.945Z,19.02
2022-08-11T02:37:50.962Z,18.93
2022-08-11T02:40:25.609Z,18.88
2022-08-11T02:43:10.212Z,18.82
2022-08-11T02:45:54.530Z,18.81
2022-08-11T02:48:51.909Z,18.77
2022-08-11T02:51:28.788Z,18.72
2022-08-11T02:54:07.951Z,18.67
2022-08-11T02:56:47.135Z,18.68
2022-08-11T02:59:44.695Z,18.64
2022-08-11T03:02:22.728Z,18.60
2022-08-11T03:05:04.136Z,18.59
2022-08-11T03:07:43.357Z,18.60
2022-08-11T03:10:19.203Z,18.59
2022-08-11T03:13:10.471Z,18.58
2022-08-11T03:16:04.765Z,18.61
2022-08-11T03:18:40.830Z,18.66
2022-08-11T03:21:19.051Z,18.73
2022-08-11T03:23:56.843Z,18.80
2022-08-11T03:26:32.924Z,18.85
2022-08-11T03:29:08.884Z,18.87
2022-08-11T03:31:47.299Z,18.88
2022-08-11T03:34:18.334Z,18.90
2022-08-11T03:37:16.383Z,18.91
2022-08-11T03:40:00.390Z,18.95
2022-08-11T03:42:36.136Z,18.97
2022-08-11T03:45:16.513Z,18.93
2022-08-11T03:48:01.415Z,18.89
2022-08-11T03:50:55.667Z,18.83
2022-08-11T03:53:40.926Z,18.71
2022-08-11T03:56:30.224Z,18.58
2022-08-11T03:59:32.764Z,18.46
2022-08-11T04:02:33.821Z,18.34
2022-08-11T04:05:38.358Z,18.23
2022-08-11T04:08:37.472Z,18.15
2022-08-11T04:11:51.299Z,18.07
2022-08-11T04:15:07.811Z,18.02
2022-08-11T04:18:02.061Z,17.95
2022-08-11T04:20:50.487Z,17.95
2022-08-11T04:24:35.011Z,17.97
2022-08-11T04:27:14.350Z,18.00
2022-08-11T04:30:04.002Z,18.03
2022-08-11T04:33:03.186Z,18.05
2022-08-11T04:35:47.336Z,18.09
2022-08-11T04:38:59.329Z,18.13
2022-08-11T04:42:31.007Z,18.24
2022-08-11T04:45:26.755Z,18.29
2022-08-11T04:48:29.290Z,18.38
2022-08-11T04:51:27.041Z,18.45
2022-08-11T04:54:28.313Z,18.53
2022-08-11T04:57:24.002Z,18.61
2022-08-11T05:00:24.127Z,18.69
2022-08-11T05:03:33.434Z,18.78
2022-08-11T05:06:38.159Z,18.91
2022-08-11T05:09:23.581Z,19.03
2022-08-11T05:12:07.191Z,19.11
2022-08-11T05:14:55.080Z,19.29
2022-08-11T05:17:49.735Z,19.45
2022-08-11T05:20:35.211Z,19.62
2022-08-11T05:23:25.476Z,19.78
2022-08-11T05:26:47.611Z,19.92
2022-08-11T05:29:27.316Z,20.09
2022-08-11T05:32:17.719Z,20.24
2022-08-11T05:34:53.721Z,20.34
2022-08-11T05:37:32.963Z,20.46
2022-08-11T05:40:25.208Z,20.54
2022-08-11T05:43:17.171Z,20.70
2022-08-11T05:46:07.126Z,20.82
2022-08-11T05:48:55.728Z,20.92
2022-08-11T05:51:55.024Z,21.01
2022-08-11T05:54:46.707Z,21.17
2022-08-11T05:57:39.677Z,21.27
2022-08-11T06:00:12.585Z,21.37
2022-08-11T06:02:43.193Z,21.50
2022-08-11T06:05:14.188Z,21.64
2022-08-11T06:07:47.309Z,21.71
2022-08-11T06:10:28.296Z,21.80
2022-08-11T06:13:01.088Z,21.98
2022-08-11T06:15:34.624Z,22.14
2022-08-11T06:18:04.135Z,22.28
2022-08-11T06:20:37.399Z,22.45
2022-08-11T06:23:08.673Z,22.63
2022-08-11T06:25:38.142Z,22.77
2022-08-11T06:28:08.531Z,22.92
2022-08-11T06:30:40.830Z,23.07
2022-08-11T06:33:12.021Z,23.26
2022-08-11T06:35:49.422Z,23.41
2022-08-11T06:38:40.494Z,23.58
2022-08-11T06:41:34.377Z,23.81
2022-08-11T06:44:17.589Z,23.97
2022-08-11T06:46:50.797Z,24.20
2022-08-11T06:49:38.670Z,24.31
2022-08-11T06:52:34.011Z,24.42
2022-08-11T06:55:06.270Z,24.58
2022-08-11T06:57:53.106Z,24.83
2022-08-11T07:00:30.675Z,25.02
2022-08-11T07:03:08.231Z,25.25
2022-08-11T07:05:45.668Z,25.45
2022-08-11T07:08:52.615Z,25.68
2022-08-11T07:12:13.523Z,25.84
2022-08-11T07:15:07.578Z,26.06
2022-08-11T07:17:40.587Z,26.28
2022-08-11T07:20:30.052Z,26.51
2022-08-11T07:23:19.864Z,26.67
2022-08-11T07:26:10.675Z,26.85
2022-08-11T07:28:59.136Z,27.01
2022-08-11T07:31:36.998Z,27.07
2022-08-11T07:34:17.958Z,27.22
2022-08-11T07:36:52.329Z,27.32
2022-08-11T07:39:22.620Z,27.50
2022-08-11T07:41:52.777Z,27.72
2022-08-11T07:44:21.975Z,27.77
2022-08-11T07:47:09.379Z,27.97
2022-08-11T07:49:57.353Z,28.04
2022-08-11T07:52:34.005Z,28.19
2022-08-11T07:55:05.963Z,28.33
2022-08-11T07:58:15.586Z,28.51
2022-08-11T08:01:03.791Z,28.68
2022-08-11T08:03:58.098Z,28.89
2022-08-11T08:06:45.832Z,29.08
2022-08-11T08:09:36.931Z,29.20
2022-08-11T08:12:24.788Z,29.30
2022-08-11T08:15:12.266Z,29.48
2022-08-11T08:18:09.041Z,29.80
2022-08-11T08:20:47.845Z,30.11
2022-08-11T08:23:17.359Z,30.32
2022-08-11T08:25:48.044Z,30.47
2022-08-11T08:28:18.546Z,30.45
2022-08-11T08:30:51.175Z,30.55
2022-08-11T08:33:22.607Z,30.68
2022-08-11T08:36:12.586Z,30.75
2022-08-11T08:38:42.236Z,30.92
2022-08-11T08:41:13.266Z,31.14
2022-08-11T08:43:49.246Z,31.34
2022-08-11T08:46:26.689Z,31.52
2022-08-11T08:48:57.369Z,31.64
2022-08-11T08:51:58.544Z,31.85
2022-08-11T08:54:34.066Z,31.99
2022-08-11T08:57:05.394Z,32.02
2022-08-11T08:59:48.999Z,32.28
2022-08-11T09:02:22.125Z,32.34
2022-08-11T09:05:10.013Z,32.56
2022-08-11T09:07:40.712Z,32.64
2022-08-11T09:10:10.821Z,32.76
2022-08-11T09:12:43.238Z,32.95
2022-08-11T09:15:14.048Z,33.01
2022-08-11T09:17:46.832Z,33.14
2022-08-11T09:20:19.191Z,33.30
2022-08-11T09:26:15.629Z,33.65
2022-08-11T09:28:46.684Z,33.79
2022-08-11T09:31:15.858Z,33.92
2022-08-11T09:33:45.672Z,33.97
2022-08-11T09:36:32.458Z,34.10
2022-08-11T09:39:21.586Z,34.24
2022-08-11T09:42:00.473Z,34.28
2022-08-11T09:44:52.950Z,34.48
2022-08-11T09:47:24.103Z,34.66
2022-08-11T09:49:55.083Z,34.72
2022-08-11T09:52:24.882Z,34.90
2022-08-11T09:54:54.391Z,34.99
2022-08-11T09:57:41.416Z,35.04
2022-08-11T10:00:15.145Z,35.25
2022-08-11T10:02:46.044Z,35.34
2022-08-11T10:05:35.974Z,35.29
2022-08-11T10:08:05.953Z,35.38
2022-08-11T10:10:37.419Z,35.60
2022-08-11T10:14:10.550Z,35.57
2022-08-11T10:16:15.626Z,35.61
2022-08-11T10:18:52.634Z,35.49
2022-08-11T10:21:30.334Z,35.57
2022-08-11T10:24:20.278Z,35.49
2022-08-11T10:26:56.703Z,35.52
2022-08-11T10:29:44.427Z,35.61
2022-08-11T10:32:49.417Z,35.87
2022-08-11T10:35:27.371Z,36.06
2022-08-11T10:38:08.784Z,35.99
2022-08-11T10:40:40.472Z,35.97
2022-08-11T10:43:13.780Z,36.01
2022-08-11T10:46:03.615Z,36.20
2022-08-11T10:48:37.824Z,36.44
2022-08-11T10:51:15.102Z,36.50
2022-08-11T10:54:03.195Z,36.67
2022-08-11T10:56:53.305Z,36.73
2022-08-11T10:59:23.143Z,36.45
2022-08-11T11:01:54.133Z,36.15
2022-08-11T11:04:36.829Z,36.01
2022-08-11T11:07:13.925Z,36.01
2022-08-11T11:09:45.310Z,36.04
2022-08-11T11:12:38.219Z,36.24
2022-08-11T11:15:25.573Z,36.44
2022-08-11T11:18:01.770Z,36.52
2022-08-11T11:20:43.719Z,36.50
2022-08-11T11:23:19.952Z,36.39
2022-08-11T11:26:10.864Z,36.49
2022-08-11T11:28:59.540Z,36.42
2022-08-11T11:31:37.014Z,36.41
2022-08-11T11:34:20.566Z,36.24
2022-08-11T11:36:51.534Z,36.45
2022-08-11T11:39:23.125Z,36.65
2022-08-11T11:41:55.528Z,36.73
2022-08-11T11:44:25.184Z,36.88
2022-08-11T11:46:53.731Z,36.99
2022-08-11T11:52:00.768Z,37.07
2022-08-11T11:54:32.403Z,37.11
2022-08-11T11:57:21.776Z,37.10
2022-08-11T12:00:09.991Z,37.18
2022-08-11T12:02:41.254Z,37.29
2022-08-11T12:05:11.152Z,37.41
2022-08-11T12:08:10.509Z,37.51
2022-08-11T12:10:42.034Z,37.48
2022-08-11T12:13:27.850Z,37.60
2022-08-11T12:16:33.611Z,37.52
2022-08-11T12:18:47.420Z,37.43
2022-08-11T12:21:17.976Z,37.55
2022-08-11T12:24:07.371Z,37.56
2022-08-11T12:27:15.007Z,37.57
2022-08-11T12:29:45.268Z,37.60
2022-08-11T12:32:13.989Z,37.40
2022-08-11T12:34:42.342Z,37.31
2022-08-11T12:37:13.778Z,37.14
2022-08-11T12:40:16.866Z,37.13
2022-08-11T12:43:21.645Z,36.90
2022-08-11T12:45:58.364Z,37.21
2022-08-11T12:49:00.589Z,37.19
2022-08-11T12:52:00.906Z,37.30
2022-08-11T12:54:47.531Z,37.28
2022-08-11T12:57:37.319Z,37.34
2022-08-11T13:00:25.456Z,37.52
2022-08-11T13:03:13.490Z,37.54
2022-08-11T13:05:44.502Z,37.52
2022-08-11T13:08:15.175Z,36.92
2022-08-11T13:11:03.869Z,37.12
2022-08-11T13:13:52.965Z,37.27
2022-08-11T13:16:23.451Z,37.42
2022-08-11T13:18:53.513Z,37.60
2022-08-11T13:21:23.595Z,37.82
2022-08-11T13:23:59.611Z,38.05
2022-08-11T13:26:46.620Z,38.21
2022-08-11T13:29:19.292Z,38.10
2022-08-11T13:31:47.508Z,38.12
2022-08-11T13:34:16.816Z,38.21
2022-08-11T13:36:45.852Z,38.36
2022-08-11T13:39:14.749Z,38.42
2022-08-11T13:41:47.672Z,38.39
2022-08-11T13:44:24.832Z,38.40
2022-08-11T13:46:55.327Z,38.49
2022-08-11T13:49:24.483Z,38.51
2022-08-11T13:51:53.981Z,38.65
2022-08-11T13:54:24.699Z,38.82
2022-08-11T13:56:57.813Z,38.94
2022-08-11T13:59:29.858Z,38.94
2022-08-11T14:02:28.268Z,38.80
2022-08-11T14:04:56.346Z,38.95
2022-08-11T14:07:28.377Z,39.22
2022-08-11T14:09:59.745Z,39.36
2022-08-11T14:12:49.959Z,39.34
2022-08-11T14:15:24.962Z,38.99
2022-08-11T14:17:56.339Z,38.89
2022-08-11T14:20:49.172Z,38.66
2022-08-11T14:23:17.022Z,38.79
2022-08-11T14:26:01.853Z,38.80
2022-08-11T14:28:44.398Z,38.77
2022-08-11T14:31:16.035Z,38.76
2022-08-11T14:34:00.409Z,38.85
2022-08-11T14:36:33.973Z,38.96
2022-08-11T14:39:04.438Z,38.97
2022-08-11T14:42:10.513Z,39.02
2022-08-11T14:45:00.996Z,39.16
2022-08-11T14:47:31.797Z,39.32
2022-08-11T14:50:11.867Z,39.34
2022-08-11T14:52:46.802Z,39.54
2022-08-11T14:55:34.183Z,39.62
2022-08-11T14:58:03.323Z,39.49
2022-08-11T15:00:35.118Z,39.34
2022-08-11T15:03:10.947Z,39.19
2022-08-11T15:05:54.297Z,39.33
2022-08-11T15:08:49.451Z,39.19
2022-08-11T15:11:37.450Z,39.01
2022-08-11T15:14:08.920Z,39.03
2022-08-11T15:17:12.327Z,39.23
2022-08-11T15:20:04.924Z,39.89
2022-08-11T15:22:51.196Z,40.83
2022-08-11T15:25:20.961Z,41.21
2022-08-11T15:28:10.000Z,41.20
2022-08-11T15:31:08.231Z,41.55
2022-08-11T15:33:58.028Z,41.99
2022-08-11T15:36:46.051Z,42.55
2022-08-11T15:39:21.104Z,43.14
2022-08-11T15:42:12.707Z,43.61
2022-08-11T15:45:04.587Z,43.87
2022-08-11T15:47:38.728Z,43.81
2022-08-11T15:50:15.682Z,43.11
2022-08-11T15:52:53.641Z,43.24
2022-08-11T15:55:23.824Z,43.42
2022-08-11T15:58:12.307Z,43.42
2022-08-11T16:01:08.588Z,43.05
2022-08-11T16:04:08.082Z,43.43
2022-08-11T16:06:49.307Z,43.61
2022-08-11T16:09:39.719Z,43.70
2022-08-11T16:12:18.462Z,43.65
2022-08-11T16:15:10.829Z,43.95
2022-08-11T16:17:44.259Z,44.01
2022-08-11T16:20:15.233Z,43.92
2022-08-11T16:23:01.464Z,44.10
2022-08-11T16:27:05.524Z,43.81
2022-08-11T16:28:26.172Z,43.47
2022-08-11T16:30:56.186Z,43.09
2022-08-11T16:33:49.465Z,42.68
2022-08-11T16:36:49.189Z,42.27
2022-08-11T16:39:19.610Z,42.09
2022-08-11T16:42:07.662Z,41.75
2022-08-11T16:45:15.316Z,41.88
2022-08-11T16:48:03.682Z,42.09
2022-08-11T16:50:33.835Z,42.31
2022-08-11T16:53:02.006Z,42.29
2022-08-11T16:55:51.539Z,42.55
2022-08-11T16:58:44.702Z,42.58
2022-08-11T17:01:14.523Z,42.45
2022-08-11T17:04:04.433Z,41.85
2022-08-11T17:06:52.732Z,41.11
2022-08-11T17:09:41.360Z,40.28
2022-08-11T17:12:30.051Z,39.60
2022-08-11T17:15:01.536Z,38.99
2022-08-11T17:17:36.958Z,38.49
2022-08-11T17:20:38.372Z,38.16
2022-08-11T17:23:18.136Z,37.68
2022-08-11T17:26:03.565Z,37.17
2022-08-11T17:28:35.920Z,36.87
2022-08-11T17:31:23.799Z,36.77
2022-08-11T17:34:11.370Z,36.87
2022-08-11T17:36:45.564Z,37.08
2022-08-11T17:39:16.265Z,37.19
2022-08-11T17:42:05.124Z,37.09
2022-08-11T17:44:54.431Z,36.83
2022-08-11T17:47:43.628Z,36.45
2022-08-11T17:50:16.955Z,36.14
2022-08-11T17:53:06.203Z,35.87
2022-08-11T17:55:53.832Z,35.63
2022-08-11T17:58:41.548Z,35.40
2022-08-11T18:01:20.544Z,35.20
2022-08-11T18:03:56.255Z,35.02
2022-08-11T18:06:34.773Z,34.84
2022-08-11T18:09:23.186Z,34.65
2022-08-11T18:12:11.383Z,34.45
2022-08-11T18:14:59.059Z,34.24
2022-08-11T18:17:46.034Z,34.00
2022-08-11T18:20:32.984Z,33.80
2022-08-11T18:23:21.779Z,33.61
2022-08-11T18:26:28.787Z,33.40
2022-08-11T18:29:17.624Z,33.17
2022-08-11T18:32:08.759Z,32.94
2022-08-11T18:35:00.245Z,32.74
2022-08-11T18:37:51.206Z,32.52
2022-08-11T18:40:41.034Z,32.28
2022-08-11T18:43:30.281Z,31.96
2022-08-11T18:46:19.462Z,31.70
2022-08-11T18:49:15.370Z,31.44
2022-08-11T18:52:06.547Z,31.24
2022-08-11T18:54:56.416Z,31.00
2022-08-11T18:57:49.432Z,30.80
2022-08-11T19:00:40.048Z,30.63
2022-08-11T19:03:26.448Z,30.43
2022-08-11T19:06:38.874Z,30.10
2022-08-11T19:09:26.258Z,29.80
2022-08-11T19:12:13.678Z,29.53
2022-08-11T19:15:01.476Z,29.28
2022-08-11T19:17:49.461Z,29.13
2022-08-11T19:20:38.518Z,29.01
2022-08-11T19:23:27.451Z,28.88
2022-08-11T19:26:16.309Z,28.76
2022-08-11T19:29:05.185Z,28.63
2022-08-11T19:31:51.733Z,28.54
2022-08-11T19:34:39.555Z,28.35
2022-08-11T19:37:27.269Z,28.17
2022-08-11T19:40:16.628Z,28.00
2022-08-11T19:43:14.762Z,27.92
2022-08-11T19:46:11.861Z,27.81
2022-08-11T19:48:58.921Z,27.87
2022-08-11T19:51:47.439Z,27.66
2022-08-11T19:54:42.913Z,27.49
2022-08-11T19:57:29.946Z,27.32
2022-08-11T20:00:17.535Z,27.30
2022-08-11T20:03:08.736Z,27.31
2022-08-11T20:05:59.716Z,27.37
2022-08-11T20:08:48.707Z,27.42
2022-08-11T20:11:36.545Z,27.43
2022-08-11T20:14:25.299Z,27.40
2022-08-11T20:17:13.847Z,27.34
2022-08-11T20:22:49.271Z,27.08
2022-08-11T20:25:36.720Z,26.92
2022-08-11T20:28:24.130Z,26.82
2022-08-11T20:31:11.923Z,26.71
2022-08-11T20:34:01.119Z,26.59
2022-08-11T20:36:54.057Z,26.47
2022-08-11T20:39:42.042Z,26.36
2022-08-11T20:42:30.717Z,26.26
2022-08-11T20:45:23.323Z,26.18
2022-08-11T20:48:14.701Z,26.12
2022-08-11T20:51:06.139Z,26.02
2022-08-11T20:53:53.805Z,25.91
2022-08-11T20:56:43.410Z,25.83
2022-08-11T20:59:33.299Z,25.74
2022-08-11T21:02:25.992Z,25.63
2022-08-11T21:05:15.913Z,25.48
2022-08-11T21:08:13.197Z,25.33
2022-08-11T21:11:00.408Z,25.23
2022-08-11T21:13:51.498Z,25.11
2022-08-11T21:16:47.449Z,25.03
2022-08-11T21:19:59.893Z,25.03
2022-08-11T21:22:59.497Z,25.08
2022-08-11T21:25:59.823Z,25.00
2022-08-11T21:28:47.818Z,24.78
2022-08-11T21:31:35.057Z,24.63
2022-08-11T21:34:22.037Z,24.56
2022-08-11T21:37:08.667Z,24.61
2022-08-11T21:39:55.811Z,24.64
2022-08-11T21:42:43.938Z,24.62
2022-08-11T21:45:31.864Z,24.59
2022-08-11T21:48:19.539Z,24.53
2022-08-11T21:51:05.645Z,24.49
2022-08-11T21:53:52.480Z,24.47
2022-08-11T21:56:39.032Z,24.47
2022-08-11T21:59:26.520Z,24.43
2022-08-11T22:02:13.099Z,24.42
2022-08-11T22:04:59.990Z,24.40
2022-08-11T22:07:46.965Z,24.37
2022-08-11T22:10:42.081Z,24.18
2022-08-11T22:13:30.291Z,23.92
2022-08-11T22:16:17.864Z,23.74
2022-08-11T22:19:04.782Z,23.53
2022-08-11T22:22:02.535Z,23.41
2022-08-11T22:24:51.343Z,23.25
2022-08-11T22:27:37.513Z,23.18
2022-08-11T22:30:25.366Z,23.10
2022-08-11T22:33:15.162Z,23.04
2022-08-11T22:36:02.575Z,22.98
2022-08-11T22:38:51.068Z,23.05
2022-08-11T22:41:37.390Z,23.09
2022-08-11T22:44:23.780Z,23.14
2022-08-11T22:47:12.384Z,23.14
2022-08-11T22:50:01.281Z,23.07
2022-08-11T22:52:48.163Z,22.98
2022-08-11T22:55:34.875Z,22.89
2022-08-11T22:58:22.105Z,22.80
2022-08-11T23:01:08.090Z,22.74
2022-08-11T23:03:54.276Z,22.68
2022-08-11T23:06:42.618Z,22.61
2022-08-11T23:09:28.730Z,22.56
2022-08-11T23:12:16.453Z,22.49
2022-08-11T23:15:03.720Z,22.43
2022-08-11T23:17:50.833Z,22.34
2022-08-11T23:20:39.561Z,22.30
2022-08-11T23:23:32.957Z,22.29
2022-08-11T23:26:19.908Z,22.27
2022-08-11T23:29:06.323Z,22.25
2022-08-11T23:31:54.129Z,22.18
2022-08-11T23:35:37.253Z,22.12
2022-08-11T23:37:49.179Z,22.12
2022-08-11T23:40:36.073Z,22.09
2022-08-11T23:43:21.820Z,22.05
2022-08-11T23:46:07.838Z,22.05
2022-08-11T23:48:55.790Z,22.00
2022-08-11T23:51:42.399Z,21.96
2022-08-11T23:54:31.627Z,21.94
2022-08-11T23:57:22.677Z,21.88
